Terminal Aerodrome Forecast
Issued by NWS Boston, MA

Home | Current Version | Previous Version | Text Only | Print | Product List | Glossary On
Versions: 1 2 3 4 5 6 7 8 9 10 11 12 13 14 15 16 17 18 19 20 21 22 23
000
FTUS41 KBOX 232107 AAA
TAFPVD
TAF AMD
KPVD 232107Z 2321/2418 17008KT P6SM -RA BKN015 OVC025
     FM232300 16007KT 6SM -RA BR OVC015
     FM240400 22005KT 5SM BR OVC003
     FM240600 25006KT 6SM BR BKN060
     FM240800 26006KT P6SM BKN100=

USA.gov is the U.S. government's official web portal to all federal, state and local government web resources and services.